Terminal Aerodrome Forecast
Issued by NWS

Home | Current Version | Previous Version | Text Only | Print | Product List | Glossary On
Versions: 1 2 3 4 5 6 7 8 9 10 11 12 13
050
FTUS45 KVEF 010527
TAFBIH
TAF
KBIH 010527Z 0106/0206 35012KT P6SM OVC100
     FM011400 35010KT P6SM SCT100
     FM011900 17007KT P6SM FEW080 BKN100=

USA.gov is the U.S. government's official web portal to all federal, state and local government web resources and services.